Amherst, Wisconsin
Current Conditions -  °F | °C
As of 5:15 AM on Monday 22 Dec 2014 (Local Time) from KSTE Reporting Station
Haze Haze  
Wind Chill: -3°   Ceiling: 1100
Heat Index:   Visibility: 5mi
Dew Point: -1°   Wind: 6mph
Humidity: 92%   Direction: 140°SE
Pressure: 29.86"   Gusts: NA
Location:  44.45°N, 89.28°W
Report Text: KSTE 221115Z AUTO 14005KT 5SM BR OVC011 00/M01 A2986 RMK AO2 T10021013
Loading
Personal Weather Stations






























Interactive Weather Map New forecast layout! Learn more

10-Day Weather Forecast

Advertisements
Track Severe Weather on mobile